createdAt,value
2023-05-07T00:01:01.575Z,71.52
2023-05-07T00:03:30.937Z,71.20
2023-05-07T00:05:58.935Z,74.11
2023-05-07T00:08:26.912Z,72.81
2023-05-07T00:10:55.109Z,71.95
2023-05-07T00:13:23.191Z,71.26
2023-05-07T00:15:51.184Z,70.63
2023-05-07T00:18:22.101Z,70.83
2023-05-07T00:20:51.397Z,71.81
2023-05-07T00:23:19.310Z,72.65
2023-05-07T00:25:47.220Z,71.66
2023-05-07T00:28:15.155Z,71.68
2023-05-07T00:30:43.051Z,70.87
2023-05-07T00:33:11.015Z,71.52
2023-05-07T00:35:38.938Z,72.11
2023-05-07T00:38:08.227Z,71.28
2023-05-07T00:40:36.298Z,71.56
2023-05-07T00:43:04.669Z,71.18
2023-05-07T00:45:32.835Z,71.04
2023-05-07T00:48:02.571Z,71.15
2023-05-07T00:50:31.100Z,70.60
2023-05-07T00:52:59.182Z,70.95
2023-05-07T00:55:28.712Z,70.69
2023-05-07T00:57:56.628Z,70.82
2023-05-07T01:00:25.775Z,71.16
2023-05-07T01:02:54.164Z,71.18
2023-05-07T01:05:24.540Z,71.18
2023-05-07T01:07:53.388Z,71.06
2023-05-07T01:10:21.528Z,71.97
2023-05-07T01:12:51.773Z,71.51
2023-05-07T01:15:20.171Z,71.28
2023-05-07T01:17:48.143Z,71.02
2023-05-07T01:20:16.947Z,71.47
2023-05-07T01:22:46.621Z,71.09
2023-05-07T01:25:14.693Z,70.76
2023-05-07T01:27:42.617Z,70.62
2023-05-07T01:30:11.469Z,71.87
2023-05-07T01:32:43.319Z,72.59
2023-05-07T01:35:13.682Z,72.49
2023-05-07T01:37:41.976Z,71.68
2023-05-07T01:40:12.379Z,71.70
2023-05-07T01:42:40.637Z,71.58
2023-05-07T01:45:09.502Z,72.08
2023-05-07T01:47:38.644Z,73.39
2023-05-07T01:50:09.675Z,72.44
2023-05-07T01:52:38.643Z,71.61
2023-05-07T01:55:08.156Z,71.99
2023-05-07T01:57:37.573Z,72.06
2023-05-07T02:00:06.472Z,71.35
2023-05-07T02:02:34.482Z,71.11
2023-05-07T02:05:03.000Z,70.92
2023-05-07T02:07:30.968Z,71.94
2023-05-07T02:09:58.882Z,73.06
2023-05-07T02:12:26.788Z,72.93
2023-05-07T02:14:56.116Z,71.75
2023-05-07T02:17:24.036Z,71.45
2023-05-07T02:19:51.930Z,70.99
2023-05-07T02:22:19.953Z,70.97
2023-05-07T02:24:47.838Z,71.00
2023-05-07T02:27:15.785Z,73.01
2023-05-07T02:29:43.647Z,72.90
2023-05-07T02:32:13.057Z,72.56
2023-05-07T02:34:40.948Z,73.83
2023-05-07T02:37:08.836Z,72.20
2023-05-07T02:39:38.207Z,72.99
2023-05-07T02:42:06.126Z,73.60
2023-05-07T02:44:34.035Z,72.71
2023-05-07T02:47:01.979Z,73.81
2023-05-07T02:49:31.241Z,72.79
2023-05-07T02:51:59.135Z,72.35
2023-05-07T02:54:27.040Z,72.02
2023-05-07T02:56:54.940Z,71.13
2023-05-07T02:59:22.820Z,72.15
2023-05-07T03:01:50.793Z,71.49
2023-05-07T03:04:18.772Z,71.52
2023-05-07T03:06:48.088Z,71.50
2023-05-07T03:09:16.007Z,71.25
2023-05-07T03:11:43.944Z,71.27
2023-05-07T03:14:11.861Z,71.28
2023-05-07T03:16:40.592Z,71.91
2023-05-07T03:19:08.550Z,71.53
2023-05-07T03:21:36.507Z,70.99
2023-05-07T03:24:06.482Z,70.86
2023-05-07T03:26:34.372Z,70.62
2023-05-07T03:29:02.282Z,70.61
2023-05-07T03:31:30.224Z,70.88
2023-05-07T03:33:59.170Z,70.98
2023-05-07T03:36:27.683Z,70.71
2023-05-07T03:38:55.607Z,70.90
2023-05-07T03:41:25.062Z,70.68
2023-05-07T03:43:52.943Z,70.90
2023-05-07T03:46:20.970Z,70.68
2023-05-07T03:48:48.938Z,70.87
2023-05-07T03:51:16.825Z,70.63
2023-05-07T03:53:44.801Z,71.24
2023-05-07T03:56:12.654Z,70.94
2023-05-07T03:58:41.920Z,71.35
2023-05-07T04:01:09.886Z,70.61
2023-05-07T04:03:38.036Z,70.32
2023-05-07T04:06:06.166Z,69.81
2023-05-07T04:08:34.008Z,70.17
2023-05-07T04:11:01.930Z,70.11
2023-05-07T04:13:29.874Z,70.26
2023-05-07T04:16:00.135Z,70.67
2023-05-07T04:18:28.116Z,70.61
2023-05-07T04:20:56.148Z,69.98
2023-05-07T04:23:24.132Z,70.09
2023-05-07T04:25:52.780Z,69.88
2023-05-07T04:28:20.705Z,69.86
2023-05-07T04:30:48.669Z,69.94
2023-05-07T04:33:18.365Z,70.97
2023-05-07T04:35:47.265Z,70.75
2023-05-07T04:38:15.231Z,71.20
2023-05-07T04:40:43.364Z,70.33
2023-05-07T04:43:11.360Z,69.96
2023-05-07T04:45:41.594Z,69.95
2023-05-07T04:48:10.904Z,70.24
2023-05-07T04:50:40.194Z,70.02
2023-05-07T04:53:08.082Z,69.68
2023-05-07T04:55:36.010Z,70.98
2023-05-07T04:58:04.173Z,70.08
2023-05-07T05:00:32.196Z,70.43
2023-05-07T05:03:00.245Z,69.96
2023-05-07T05:05:28.239Z,71.18
2023-05-07T05:07:57.504Z,70.54
2023-05-07T05:10:25.876Z,69.84
2023-05-07T05:12:53.884Z,69.72
2023-05-07T05:15:21.840Z,69.73
2023-05-07T05:17:49.770Z,69.71
2023-05-07T05:20:17.861Z,69.71
2023-05-07T05:22:45.772Z,69.57
2023-05-07T05:25:15.202Z,70.29
2023-05-07T05:27:43.125Z,69.83
2023-05-07T05:30:12.077Z,69.86
2023-05-07T05:32:40.214Z,69.57
2023-05-07T05:35:08.918Z,69.41
2023-05-07T05:37:36.850Z,71.49
2023-05-07T05:40:05.718Z,70.73
2023-05-07T05:42:35.001Z,69.96
2023-05-07T05:45:02.935Z,69.83
2023-05-07T05:47:30.959Z,69.94
2023-05-07T05:49:58.904Z,70.91
2023-05-07T05:52:26.870Z,70.07
2023-05-07T05:54:55.436Z,71.14
2023-05-07T05:57:23.319Z,69.85
2023-05-07T05:59:53.088Z,70.22
2023-05-07T06:02:21.097Z,69.58
2023-05-07T06:04:49.035Z,69.35
2023-05-07T06:07:16.999Z,69.44
2023-05-07T06:09:45.258Z,69.56
2023-05-07T06:12:13.849Z,69.15
2023-05-07T06:14:41.946Z,69.47
2023-05-07T06:17:11.246Z,70.56
2023-05-07T06:19:39.142Z,69.35
2023-05-07T06:22:07.066Z,69.12
2023-05-07T06:24:34.985Z,69.53
2023-05-07T06:27:02.944Z,70.73
2023-05-07T06:29:32.601Z,69.97
2023-05-07T06:32:08.820Z,70.04
2023-05-07T06:34:38.450Z,69.12
2023-05-07T06:37:06.408Z,69.71
2023-05-07T06:39:34.603Z,68.88
2023-05-07T06:42:02.561Z,69.66
2023-05-07T06:44:30.456Z,69.38
2023-05-07T06:46:58.811Z,69.53
2023-05-07T06:49:26.709Z,69.99
2023-05-07T06:51:56.572Z,69.15
2023-05-07T06:54:24.864Z,69.30
2023-05-07T06:56:52.799Z,69.02
2023-05-07T06:59:21.378Z,69.12
2023-05-07T07:01:49.354Z,70.45
2023-05-07T07:04:17.331Z,69.83
2023-05-07T07:06:45.278Z,70.11
2023-05-07T07:09:14.573Z,69.17
2023-05-07T07:11:42.519Z,69.30
2023-05-07T07:14:10.787Z,69.01
2023-05-07T07:16:38.859Z,69.18
2023-05-07T07:19:06.872Z,68.26
2023-05-07T07:21:34.799Z,68.41
2023-05-07T07:24:02.701Z,68.94
2023-05-07T07:26:32.355Z,69.05
2023-05-07T07:29:00.223Z,68.72
2023-05-07T07:31:28.166Z,68.57
2023-05-07T07:33:56.074Z,68.04
2023-05-07T07:36:31.980Z,68.23
2023-05-07T07:39:06.748Z,69.66
2023-05-07T07:41:36.039Z,69.41
2023-05-07T07:44:08.610Z,69.31
2023-05-07T07:46:36.749Z,68.93
2023-05-07T07:49:04.631Z,68.00
2023-05-07T07:51:32.600Z,68.75
2023-05-07T07:54:00.813Z,68.97
2023-05-07T07:56:29.187Z,68.13
2023-05-07T07:58:58.711Z,68.37
2023-05-07T08:01:27.032Z,67.81
2023-05-07T08:03:55.274Z,67.84
2023-05-07T08:06:23.346Z,68.17
2023-05-07T08:08:51.252Z,69.42
2023-05-07T08:11:19.252Z,68.87
2023-05-07T08:13:48.113Z,67.84
2023-05-07T08:16:17.451Z,68.11
2023-05-07T08:18:45.650Z,67.53
2023-05-07T08:21:13.637Z,67.63
2023-05-07T08:23:41.545Z,67.28
2023-05-07T08:26:10.013Z,67.39
2023-05-07T08:28:37.933Z,68.26
2023-05-07T08:31:06.010Z,67.68
2023-05-07T08:33:35.312Z,68.23
2023-05-07T08:36:03.195Z,68.88
2023-05-07T08:38:31.232Z,68.29
2023-05-07T08:40:59.144Z,67.32
2023-05-07T08:43:29.031Z,67.64
2023-05-07T08:45:57.760Z,67.69
2023-05-07T08:48:28.048Z,67.24
2023-05-07T08:50:57.343Z,67.20
2023-05-07T08:53:25.288Z,66.88
2023-05-07T08:55:53.585Z,66.52
2023-05-07T08:58:21.580Z,67.02
2023-05-07T09:00:49.561Z,66.28
2023-05-07T09:03:17.757Z,66.40
2023-05-07T09:05:45.899Z,65.89
2023-05-07T09:08:17.388Z,65.87
2023-05-07T09:10:45.430Z,65.52
2023-05-07T09:13:15.578Z,65.71
2023-05-07T09:15:43.726Z,65.74
2023-05-07T09:18:11.701Z,65.69
2023-05-07T09:20:39.810Z,65.82
2023-05-07T09:23:08.983Z,65.79
2023-05-07T09:25:39.027Z,66.02
2023-05-07T09:28:08.246Z,65.86
2023-05-07T09:30:36.547Z,64.84
2023-05-07T09:33:28.825Z,66.14
2023-05-07T09:35:56.804Z,65.79
2023-05-07T09:38:24.832Z,65.10
2023-05-07T09:41:04.192Z,65.09
2023-05-07T09:43:35.435Z,66.49
2023-05-07T09:46:08.842Z,65.27
2023-05-07T09:48:39.664Z,65.09
2023-05-07T09:51:18.109Z,64.73
2023-05-07T09:53:47.361Z,65.26
2023-05-07T09:56:17.755Z,64.79
2023-05-07T09:58:46.220Z,64.83
2023-05-07T10:01:15.036Z,64.79
2023-05-07T10:03:44.522Z,65.08
2023-05-07T10:06:12.867Z,64.24
2023-05-07T10:08:40.795Z,64.47
2023-05-07T10:11:08.785Z,63.93
2023-05-07T10:13:39.132Z,63.95
2023-05-07T10:16:07.607Z,63.84
2023-05-07T10:18:35.950Z,63.77
2023-05-07T10:21:09.366Z,63.75
2023-05-07T10:23:37.713Z,63.55
2023-05-07T10:26:07.630Z,63.62
2023-05-07T10:28:40.959Z,62.87
2023-05-07T10:31:21.540Z,63.13
2023-05-07T10:33:49.864Z,63.17
2023-05-07T10:36:17.927Z,63.94
2023-05-07T10:38:45.972Z,63.07
2023-05-07T10:41:14.128Z,62.83
2023-05-07T10:43:45.074Z,62.92
2023-05-07T10:46:14.322Z,63.20
2023-05-07T10:49:12.243Z,62.04
2023-05-07T10:51:41.171Z,62.35
2023-05-07T10:54:22.689Z,61.98
2023-05-07T10:56:52.132Z,63.56
2023-05-07T10:59:36.060Z,61.52
2023-05-07T11:02:07.308Z,61.29
2023-05-07T11:04:36.250Z,62.04
2023-05-07T11:07:28.043Z,61.25
2023-05-07T11:10:05.139Z,60.56
2023-05-07T11:12:52.926Z,60.69
2023-05-07T11:15:55.574Z,60.19
2023-05-07T11:18:23.632Z,60.93
2023-05-07T11:20:56.286Z,60.25
2023-05-07T11:24:09.841Z,60.07
2023-05-07T11:26:48.315Z,58.89
2023-05-07T11:29:20.140Z,57.16
2023-05-07T11:31:55.263Z,57.53
2023-05-07T11:34:24.775Z,60.17
2023-05-07T11:36:52.943Z,60.70
2023-05-07T11:39:31.083Z,58.28
2023-05-07T11:41:59.362Z,59.03
2023-05-07T11:44:27.299Z,58.28
2023-05-07T11:46:56.696Z,59.23
2023-05-07T11:49:27.684Z,58.79
2023-05-07T11:51:55.925Z,59.89
2023-05-07T11:54:23.867Z,59.28
2023-05-07T11:56:51.792Z,56.83
2023-05-07T11:59:20.453Z,58.05
2023-05-07T12:01:49.225Z,58.78
2023-05-07T12:04:23.150Z,58.21
2023-05-07T12:06:52.047Z,58.09
2023-05-07T12:09:19.953Z,58.33
2023-05-07T12:11:48.751Z,60.51
2023-05-07T12:14:18.017Z,57.96
2023-05-07T12:16:46.197Z,58.08
2023-05-07T12:19:15.840Z,57.29
2023-05-07T12:21:45.441Z,56.82
2023-05-07T12:24:13.380Z,55.44
2023-05-07T12:26:42.182Z,58.33
2023-05-07T12:29:10.088Z,58.09
2023-05-07T12:31:38.122Z,54.85
2023-05-07T12:34:06.099Z,57.43
2023-05-07T12:36:39.415Z,56.80
2023-05-07T12:39:09.704Z,57.18
2023-05-07T12:41:55.848Z,53.83
2023-05-07T12:44:24.840Z,57.19
2023-05-07T12:46:53.353Z,54.53
2023-05-07T12:49:22.487Z,54.53
2023-05-07T12:51:52.023Z,52.16
2023-05-07T12:54:31.786Z,56.48
2023-05-07T12:57:04.283Z,54.12
2023-05-07T12:59:36.137Z,54.25
2023-05-07T13:02:04.129Z,53.82
2023-05-07T13:04:32.061Z,54.35
2023-05-07T13:07:00.430Z,53.25
2023-05-07T13:09:30.019Z,53.69
2023-05-07T13:12:02.391Z,53.16
2023-05-07T13:14:30.321Z,53.12
2023-05-07T13:16:58.217Z,54.18
2023-05-07T13:19:26.244Z,53.39
2023-05-07T13:21:54.133Z,51.51
2023-05-07T13:24:22.054Z,54.78
2023-05-07T13:26:50.049Z,52.54
2023-05-07T13:29:19.382Z,51.97
2023-05-07T13:31:48.458Z,51.79
2023-05-07T13:34:17.779Z,51.70
2023-05-07T13:36:45.671Z,53.23
2023-05-07T13:39:13.714Z,53.22
2023-05-07T13:41:41.617Z,53.83
2023-05-07T13:44:09.597Z,51.84
2023-05-07T13:46:39.082Z,52.11
2023-05-07T13:49:07.000Z,52.68
2023-05-07T13:51:34.950Z,51.32
2023-05-07T13:54:02.899Z,51.23
2023-05-07T13:56:32.400Z,54.92
2023-05-07T13:59:01.054Z,53.10
2023-05-07T14:01:29.394Z,54.26
2023-05-07T14:04:00.577Z,53.63
2023-05-07T14:06:28.659Z,54.27
2023-05-07T14:08:59.044Z,53.40
2023-05-07T14:11:27.094Z,54.05
2023-05-07T14:13:55.042Z,54.21
2023-05-07T14:16:23.049Z,53.64
2023-05-07T14:18:51.025Z,54.62
2023-05-07T14:21:20.453Z,52.41
2023-05-07T14:23:48.320Z,54.71
2023-05-07T14:26:16.235Z,52.68
2023-05-07T14:28:47.301Z,52.28
2023-05-07T14:31:15.558Z,52.72
2023-05-07T14:33:43.511Z,52.21
2023-05-07T14:36:11.438Z,52.01
2023-05-07T14:38:40.921Z,52.09
2023-05-07T14:41:08.884Z,52.48
2023-05-07T14:43:36.778Z,50.28
2023-05-07T14:46:04.729Z,53.22
2023-05-07T14:48:32.638Z,52.54
2023-05-07T14:51:00.586Z,49.22
2023-05-07T14:53:28.461Z,51.71
2023-05-07T14:55:57.766Z,51.72
2023-05-07T14:58:25.961Z,51.57
2023-05-07T15:00:53.876Z,51.21
2023-05-07T15:03:22.893Z,51.37
2023-05-07T15:05:52.380Z,52.07
2023-05-07T15:08:20.600Z,51.43
2023-05-07T15:10:48.598Z,51.21
2023-05-07T15:13:17.940Z,51.57
2023-05-07T15:15:46.976Z,52.33
2023-05-07T15:18:15.053Z,51.41
2023-05-07T15:20:43.663Z,51.11
2023-05-07T15:23:13.255Z,49.17
2023-05-07T15:25:41.257Z,52.07
2023-05-07T15:28:09.630Z,51.46
2023-05-07T15:30:38.915Z,50.39
2023-05-07T15:33:06.914Z,53.08
2023-05-07T15:35:34.950Z,52.23
2023-05-07T15:38:04.550Z,50.13
2023-05-07T15:40:33.597Z,51.65
2023-05-07T15:43:01.570Z,48.37
2023-05-07T15:45:30.303Z,49.57
2023-05-07T15:47:59.746Z,49.87
2023-05-07T15:50:27.767Z,50.72
2023-05-07T15:52:55.674Z,47.57
2023-05-07T15:55:23.790Z,49.13
2023-05-07T15:57:51.701Z,48.68
2023-05-07T16:00:20.133Z,44.97
2023-05-07T16:02:48.400Z,45.38
2023-05-07T16:05:17.837Z,47.55
2023-05-07T16:07:45.831Z,45.80
2023-05-07T16:10:13.768Z,46.54
2023-05-07T16:12:41.734Z,45.96
2023-05-07T16:15:10.204Z,44.25
2023-05-07T16:17:38.196Z,45.84
2023-05-07T16:20:09.213Z,45.95
2023-05-07T16:22:38.626Z,45.80
2023-05-07T16:25:07.760Z,45.09
2023-05-07T16:27:35.683Z,44.73
2023-05-07T16:30:03.620Z,45.33
2023-05-07T16:32:31.571Z,43.67
2023-05-07T16:34:59.616Z,45.20
2023-05-07T16:37:27.505Z,45.79
2023-05-07T16:39:58.247Z,46.53
2023-05-07T16:42:26.267Z,44.93
2023-05-07T16:44:54.652Z,45.86
2023-05-07T16:47:22.653Z,45.59
2023-05-07T16:49:50.652Z,42.66
2023-05-07T16:52:18.643Z,42.36
2023-05-07T16:54:46.536Z,43.60
2023-05-07T16:57:15.884Z,43.63
2023-05-07T16:59:43.778Z,42.50
2023-05-07T17:02:11.942Z,43.75
2023-05-07T17:04:39.873Z,44.64
2023-05-07T17:07:07.829Z,44.66
2023-05-07T17:09:35.752Z,44.42
2023-05-07T17:12:03.969Z,45.49
2023-05-07T17:14:33.314Z,43.14
2023-05-07T17:17:01.248Z,45.19
2023-05-07T17:19:29.167Z,44.57
2023-05-07T17:21:57.616Z,43.48
2023-05-07T17:24:25.668Z,43.86
2023-05-07T17:26:53.555Z,44.25
2023-05-07T17:29:21.422Z,44.61
2023-05-07T17:31:50.805Z,43.90
2023-05-07T17:34:18.718Z,43.98
2023-05-07T17:36:46.657Z,45.48
2023-05-07T17:39:14.553Z,45.52
2023-05-07T17:41:42.530Z,46.46
2023-05-07T17:44:10.427Z,47.97
2023-05-07T17:46:38.287Z,48.67
2023-05-07T17:49:07.605Z,50.02
2023-05-07T17:51:46.267Z,50.34
2023-05-07T17:54:18.348Z,49.49
2023-05-07T17:56:46.305Z,50.25
2023-05-07T17:59:14.220Z,49.76
2023-05-07T18:01:42.399Z,51.35
2023-05-07T18:04:11.778Z,50.51
2023-05-07T18:06:41.684Z,52.31
2023-05-07T18:09:09.638Z,51.64
2023-05-07T18:11:37.887Z,51.73
2023-05-07T18:14:05.862Z,51.48
2023-05-07T18:16:34.038Z,51.93
2023-05-07T18:19:02.057Z,53.11
2023-05-07T18:21:32.649Z,52.97
2023-05-07T18:24:00.701Z,52.61
2023-05-07T18:26:28.582Z,53.28
2023-05-07T18:28:56.486Z,53.37
2023-05-07T18:31:24.541Z,51.85
2023-05-07T18:33:53.241Z,53.74
2023-05-07T18:36:21.137Z,53.72
2023-05-07T18:38:50.410Z,53.76
2023-05-07T18:41:18.326Z,53.32
2023-05-07T18:43:46.241Z,53.24
2023-05-07T18:46:14.141Z,53.67
2023-05-07T18:48:42.058Z,54.39
2023-05-07T18:51:12.654Z,54.55
2023-05-07T18:53:40.711Z,54.81
2023-05-07T18:56:10.007Z,54.98
2023-05-07T18:58:37.878Z,55.31
2023-05-07T19:01:08.430Z,55.20
2023-05-07T19:03:36.742Z,55.06
2023-05-07T19:06:05.998Z,54.97
2023-05-07T19:08:34.249Z,55.34
2023-05-07T19:11:03.427Z,55.35
2023-05-07T19:13:32.845Z,55.65
2023-05-07T19:16:00.850Z,55.59
2023-05-07T19:18:29.763Z,56.02
2023-05-07T19:20:57.747Z,56.00
2023-05-07T19:23:26.063Z,55.79
2023-05-07T19:25:53.981Z,56.06
2023-05-07T19:28:22.054Z,56.14
2023-05-07T19:30:52.714Z,56.13
2023-05-07T19:33:20.789Z,56.06
2023-05-07T19:35:48.718Z,56.40
2023-05-07T19:38:16.624Z,56.39
2023-05-07T19:40:44.496Z,56.58
2023-05-07T19:43:12.400Z,56.54
2023-05-07T19:45:42.893Z,56.50
2023-05-07T19:48:12.227Z,56.93
2023-05-07T19:50:40.578Z,56.81
2023-05-07T19:53:08.602Z,56.96
2023-05-07T19:55:36.512Z,56.82
2023-05-07T19:58:04.506Z,56.71
2023-05-07T20:00:33.961Z,56.83
2023-05-07T20:03:02.062Z,57.12
2023-05-07T20:05:31.436Z,56.95
2023-05-07T20:08:00.236Z,57.02
2023-05-07T20:10:28.274Z,57.29
2023-05-07T20:12:56.389Z,57.65
2023-05-07T20:15:24.314Z,57.43
2023-05-07T20:17:52.256Z,57.44
2023-05-07T20:20:20.416Z,57.46
2023-05-07T20:22:49.813Z,57.49
2023-05-07T20:25:17.709Z,57.60
2023-05-07T20:27:45.691Z,57.59
2023-05-07T20:30:14.729Z,57.83
2023-05-07T20:32:43.492Z,57.79
2023-05-07T20:35:11.714Z,57.65
2023-05-07T20:37:40.385Z,57.95
2023-05-07T20:40:11.243Z,57.90
2023-05-07T20:42:39.467Z,58.09
2023-05-07T20:45:08.264Z,58.09
2023-05-07T20:47:36.310Z,58.26
2023-05-07T20:50:04.524Z,58.25
2023-05-07T20:52:32.414Z,58.32
2023-05-07T20:55:00.326Z,58.57
2023-05-07T20:57:29.636Z,58.49
2023-05-07T20:59:57.547Z,58.93
2023-05-07T21:02:25.433Z,58.92
2023-05-07T21:04:53.454Z,59.15
2023-05-07T21:07:21.371Z,59.16
2023-05-07T21:09:49.248Z,59.27
2023-05-07T21:12:17.148Z,59.15
2023-05-07T21:14:46.439Z,59.50
2023-05-07T21:17:14.351Z,59.48
2023-05-07T21:19:43.358Z,59.65
2023-05-07T21:22:11.325Z,59.58
2023-05-07T21:24:41.243Z,59.38
2023-05-07T21:27:09.273Z,59.94
2023-05-07T21:29:37.231Z,59.57
2023-05-07T21:32:06.760Z,59.65
2023-05-07T21:34:35.269Z,60.32
2023-05-07T21:37:03.199Z,59.90
2023-05-07T21:39:31.121Z,59.96
2023-05-07T21:41:59.013Z,60.29
2023-05-07T21:44:28.802Z,60.22
2023-05-07T21:46:56.748Z,60.04
2023-05-07T21:49:26.177Z,60.24
2023-05-07T21:51:54.055Z,59.68
2023-05-07T21:54:21.940Z,59.87
2023-05-07T21:56:50.234Z,60.42
2023-05-07T21:59:18.266Z,60.32
2023-05-07T22:01:46.165Z,60.24
2023-05-07T22:04:14.192Z,60.05
2023-05-07T22:06:43.463Z,61.23
2023-05-07T22:09:11.818Z,60.49
2023-05-07T22:11:39.803Z,60.52
2023-05-07T22:14:07.721Z,60.46
2023-05-07T22:16:35.702Z,60.53
2023-05-07T22:19:03.701Z,60.89
2023-05-07T22:21:31.654Z,61.02
2023-05-07T22:24:00.912Z,61.21
2023-05-07T22:26:28.848Z,61.01
2023-05-07T22:28:56.793Z,61.39
2023-05-07T22:31:24.701Z,61.78
2023-05-07T22:33:52.668Z,62.53
2023-05-07T22:36:20.587Z,61.79
2023-05-07T22:38:48.472Z,63.07
2023-05-07T22:41:17.880Z,62.16
2023-05-07T22:43:45.820Z,63.60
2023-05-07T22:46:13.780Z,62.22
2023-05-07T22:48:41.702Z,61.82
2023-05-07T22:51:14.040Z,61.78
2023-05-07T22:53:42.015Z,62.23
2023-05-07T22:56:11.133Z,62.09
2023-05-07T22:58:40.454Z,63.19
2023-05-07T23:01:13.951Z,63.46
2023-05-07T23:03:42.250Z,63.10
2023-05-07T23:06:10.684Z,62.99
2023-05-07T23:08:38.616Z,63.70
2023-05-07T23:11:06.729Z,63.97
2023-05-07T23:13:35.099Z,64.91
2023-05-07T23:16:04.419Z,64.15
2023-05-07T23:18:32.697Z,64.79
2023-05-07T23:21:00.594Z,65.10
2023-05-07T23:23:33.625Z,65.69
2023-05-07T23:26:01.600Z,65.59
2023-05-07T23:28:29.525Z,65.71
2023-05-07T23:30:57.591Z,65.19
2023-05-07T23:33:26.940Z,65.63
2023-05-07T23:36:00.385Z,66.24
2023-05-07T23:38:28.266Z,66.32
2023-05-07T23:40:56.213Z,65.18
2023-05-07T23:43:24.599Z,64.43
2023-05-07T23:45:52.679Z,63.91
2023-05-07T23:48:20.852Z,64.09
2023-05-07T23:50:50.172Z,64.90
2023-05-07T23:53:18.055Z,66.45
2023-05-07T23:55:45.937Z,66.26
2023-05-07T23:58:14.204Z,65.30
